Time;durP1;ratioP1;P1;durP2;ratioP2;P2;SDS_P1;SDS_P2;PMS_P1;PMS_P2;Temp;Humidity;BMP_temperature;BMP_pressure;BME280_temperature;BME280_humidity;BME280_pressure;Samples;Min_cycle;Max_cycle;Signal;HPM_P1;HPM_P2
2023/09/08 00:01:34;;;;;;;8.82;4.85;;;23.40;99.90;;;;;;5048896;29;20025;-79
2023/09/08 00:04:09;;;;;;;11.02;4.50;;;23.40;99.90;;;;;;5047782;29;20033;-77
2023/09/08 00:06:42;;;;;;;9.57;5.55;;;23.40;99.90;;;;;;5049047;29;20025;-77
2023/09/08 00:09:13;;;;;;;8.55;5.65;;;23.40;99.90;;;;;;5048678;29;20426;-76
2023/09/08 00:11:44;;;;;;;9.32;4.70;;;23.40;99.90;;;;;;5047634;29;20025;-75
2023/09/08 00:14:15;;;;;;;12.98;5.40;;;23.40;99.90;;;;;;5048554;29;20073;-77
2023/09/08 00:16:46;;;;;;;7.30;5.10;;;23.40;99.90;;;;;;5047648;29;20175;-77
2023/09/08 00:19:17;;;;;;;8.00;5.28;;;23.40;99.90;;;;;;5048508;29;20143;-80
2023/09/08 00:21:48;;;;;;;12.30;5.57;;;23.40;99.90;;;;;;5048368;29;20035;-79
2023/09/08 00:24:19;;;;;;;8.38;5.47;;;23.40;99.90;;;;;;5029491;29;20040;-76
2023/09/08 00:26:50;;;;;;;9.60;6.25;;;23.40;99.90;;;;;;5038219;29;20029;-79
2023/09/08 00:29:21;;;;;;;10.73;6.07;;;23.30;99.90;;;;;;5048180;29;20029;-77
2023/09/08 00:31:51;;;;;;;7.05;5.47;;;23.30;99.90;;;;;;5048520;29;20478;-77
2023/09/08 00:34:22;;;;;;;7.35;6.15;;;23.40;99.90;;;;;;5043014;29;20041;-78
2023/09/08 00:36:53;;;;;;;10.02;5.90;;;23.30;99.90;;;;;;5029292;29;20529;-79
2023/09/08 00:39:24;;;;;;;7.57;5.60;;;23.30;99.90;;;;;;5029292;29;20091;-79
2023/09/08 00:41:55;;;;;;;10.13;5.57;;;23.40;99.90;;;;;;5031473;29;20029;-78
2023/09/08 00:44:25;;;;;;;7.20;6.18;;;23.30;99.90;;;;;;5044406;29;20116;-77
2023/09/08 00:46:56;;;;;;;9.23;5.30;;;23.30;99.90;;;;;;5048323;29;20386;-80
2023/09/08 00:49:28;;;;;;;6.88;5.68;;;23.40;99.90;;;;;;5048256;29;20367;-80
2023/09/08 00:51:59;;;;;;;9.32;5.60;;;23.50;99.90;;;;;;5047023;29;20382;-76
2023/09/08 00:54:30;;;;;;;7.97;6.65;;;23.40;99.90;;;;;;5047781;29;20049;-77
2023/09/08 00:57:03;;;;;;;8.60;6.15;;;23.50;99.90;;;;;;5047712;29;20059;-80
2023/09/08 00:59:35;;;;;;;8.93;6.22;;;23.40;99.90;;;;;;5049467;29;20029;-78
2023/09/08 01:02:06;;;;;;;10.90;5.97;;;23.40;99.90;;;;;;5067647;29;20032;-78
2023/09/08 01:04:40;;;;;;;9.60;6.32;;;23.40;99.90;;;;;;5058195;29;20029;-78
2023/09/08 01:07:11;;;;;;;8.50;6.03;;;23.30;99.90;;;;;;5029045;29;20030;-79
2023/09/08 01:09:42;;;;;;;10.98;7.25;;;23.30;99.90;;;;;;5027561;29;20402;-77
2023/09/08 01:12:13;;;;;;;9.38;7.32;;;23.20;99.90;;;;;;5028804;29;20030;-78
2023/09/08 01:14:44;;;;;;;8.73;6.95;;;23.30;99.90;;;;;;5046937;29;20398;-78
2023/09/08 01:17:15;;;;;;;8.50;7.65;;;23.30;99.90;;;;;;5047996;29;20029;-79
2023/09/08 01:19:48;;;;;;;8.45;7.28;;;23.30;99.90;;;;;;5048037;29;20492;-78
2023/09/08 01:22:48;;;;;;;8.18;7.35;;;23.20;99.90;;;;;;5047880;29;20029;-77
2023/09/08 01:25:25;;;;;;;16.17;7.85;;;23.30;99.90;;;;;;5025834;29;20045;-78
2023/09/08 01:27:59;;;;;;;9.85;7.40;;;23.30;99.90;;;;;;5049705;29;20040;-78
2023/09/08 01:30:33;;;;;;;14.38;7.75;;;23.30;99.90;;;;;;5051801;29;20162;-78
2023/09/08 01:33:04;;;;;;;10.93;7.00;;;23.30;99.90;;;;;;5050472;29;20438;-78
2023/09/08 01:35:36;;;;;;;8.77;7.50;;;23.20;99.90;;;;;;5051838;29;20165;-77
2023/09/08 01:38:07;;;;;;;10.13;9.15;;;23.30;99.90;;;;;;5051420;29;20025;-78
2023/09/08 01:40:37;;;;;;;9.45;8.07;;;23.30;99.90;;;;;;5051492;29;20032;-77
2023/09/08 01:43:08;;;;;;;8.32;7.32;;;23.20;99.90;;;;;;5051660;29;20025;-77
2023/09/08 01:45:39;;;;;;;21.95;8.40;;;23.20;99.90;;;;;;5050285;29;20044;-77
2023/09/08 01:48:10;;;;;;;9.15;7.65;;;23.30;99.90;;;;;;5051514;29;20021;-77
2023/09/08 01:50:40;;;;;;;7.45;6.72;;;23.30;99.90;;;;;;5051430;29;20399;-78
2023/09/08 01:53:11;;;;;;;10.68;8.93;;;23.20;99.90;;;;;;5051147;29;20048;-77
2023/09/08 01:55:42;;;;;;;10.85;8.43;;;23.10;99.90;;;;;;5051112;29;20112;-77
2023/09/08 01:58:13;;;;;;;10.48;8.38;;;23.20;99.90;;;;;;5049892;29;20053;-78
2023/09/08 02:00:49;;;;;;;10.05;8.27;;;23.10;99.90;;;;;;5050163;29;20033;-80
2023/09/08 02:03:20;;;;;;;11.55;7.85;;;23.20;99.90;;;;;;5051049;29;20044;-77
2023/09/08 02:05:50;;;;;;;10.98;9.18;;;23.20;99.90;;;;;;5050859;29;20029;-80
2023/09/08 02:08:21;;;;;;;11.45;8.52;;;23.20;99.90;;;;;;5051008;29;20037;-75
2023/09/08 02:10:52;;;;;;;9.20;7.50;;;23.30;99.90;;;;;;5051199;29;20115;-81
2023/09/08 02:13:23;;;;;;;9.13;8.27;;;23.30;99.90;;;;;;5051128;29;20096;-80
2023/09/08 02:15:53;;;;;;;8.75;7.10;;;23.20;99.90;;;;;;5035218;29;20117;-80
2023/09/08 02:18:25;;;;;;;10.32;8.30;;;23.10;99.90;;;;;;5031794;29;20402;-80
2023/09/08 02:20:56;;;;;;;8.88;7.95;;;23.30;99.90;;;;;;5037071;29;20077;-79
2023/09/08 02:23:27;;;;;;;9.00;8.18;;;23.30;99.90;;;;;;5050881;29;20116;-79
2023/09/08 02:25:57;;;;;;;8.82;7.88;;;23.20;99.90;;;;;;5049497;29;20026;-79
2023/09/08 02:28:29;;;;;;;8.45;7.60;;;23.20;99.90;;;;;;5049547;29;20029;-79
2023/09/08 02:30:59;;;;;;;9.82;8.02;;;23.20;99.90;;;;;;5050589;29;20487;-80
2023/09/08 02:33:30;;;;;;;10.45;8.50;;;23.20;99.90;;;;;;5050863;29;20037;-80
2023/09/08 02:36:05;;;;;;;12.25;9.07;;;23.10;99.90;;;;;;5050833;29;20032;-79
2023/09/08 02:38:37;;;;;;;10.00;9.02;;;23.20;99.90;;;;;;5049485;29;20101;-79
2023/09/08 02:41:08;;;;;;;8.48;7.28;;;23.20;99.90;;;;;;5050329;29;20028;-79
2023/09/08 02:43:39;;;;;;;9.93;8.07;;;23.20;99.90;;;;;;5050496;29;20029;-79
2023/09/08 02:46:09;;;;;;;28.67;7.78;;;23.20;99.90;;;;;;5049102;29;20021;-79
2023/09/08 02:48:40;;;;;;;151.48;62.10;;;23.20;99.90;;;;;;5048939;29;20486;-79
2023/09/08 02:51:12;;;;;;;9.38;7.50;;;23.30;99.90;;;;;;5050417;29;20530;-79
2023/09/08 02:53:42;;;;;;;76.85;14.00;;;23.30;99.90;;;;;;5049494;29;20041;-78
2023/09/08 02:56:13;;;;;;;8.00;7.30;;;23.30;99.90;;;;;;5050300;29;20379;-78
2023/09/08 02:58:44;;;;;;;9.70;6.40;;;23.20;99.90;;;;;;5050206;29;20109;-79
2023/09/08 03:01:20;;;;;;;146.27;42.20;;;23.30;99.90;;;;;;5048991;29;20030;-79
2023/09/08 03:03:51;;;;;;;10.45;6.47;;;23.20;99.90;;;;;;5050045;29;20064;-76
2023/09/08 03:06:22;;;;;;;7.38;6.32;;;23.30;99.90;;;;;;5050086;29;20112;-79
2023/09/08 03:08:52;;;;;;;7.97;6.75;;;23.20;99.90;;;;;;5048752;29;20116;-79
2023/09/08 03:11:23;;;;;;;7.95;6.68;;;23.30;99.90;;;;;;5048782;29;20038;-79
2023/09/08 03:13:54;;;;;;;8.77;6.90;;;23.30;99.90;;;;;;5040005;29;20037;-78
2023/09/08 03:16:25;;;;;;;7.97;6.95;;;23.30;99.90;;;;;;5049500;29;20035;-76
2023/09/08 03:18:55;;;;;;;7.05;6.20;;;23.40;99.90;;;;;;5040193;29;20372;-76
2023/09/08 03:21:26;;;;;;;13.05;7.72;;;23.40;99.90;;;;;;5049571;29;20117;-80
2023/09/08 03:23:57;;;;;;;7.90;6.85;;;23.30;99.90;;;;;;5063880;29;20558;-76
2023/09/08 03:26:28;;;;;;;9.63;6.43;;;23.30;99.90;;;;;;5049534;29;20108;-78
2023/09/08 03:28:59;;;;;;;9.68;6.57;;;23.40;99.90;;;;;;5048397;29;20120;-79
2023/09/08 03:31:30;;;;;;;11.20;8.15;;;23.40;99.90;;;;;;5048289;29;20581;-79
2023/09/08 03:34:01;;;;;;;9.93;7.93;;;23.30;99.90;;;;;;5049499;29;20052;-79
2023/09/08 03:36:35;;;;;;;10.10;7.43;;;23.30;99.90;;;;;;5049842;29;20021;-78
2023/09/08 03:39:06;;;;;;;11.35;7.10;;;23.30;99.90;;;;;;5048259;29;20551;-79
2023/09/08 03:41:37;;;;;;;10.93;7.35;;;23.30;99.90;;;;;;5044140;29;20125;-76
2023/09/08 03:44:08;;;;;;;8.15;5.93;;;23.40;99.90;;;;;;5044527;29;20060;-76
2023/09/08 03:46:39;;;;;;;8.90;6.60;;;23.30;99.90;;;;;;5044312;29;20037;-75
2023/09/08 03:49:09;;;;;;;8.40;6.35;;;23.30;99.90;;;;;;5044719;29;20113;-79
2023/09/08 03:51:41;;;;;;;10.35;6.32;;;23.30;99.90;;;;;;5045956;29;20025;-75
2023/09/08 03:54:12;;;;;;;12.02;6.28;;;23.30;99.90;;;;;;5049296;29;20045;-77
2023/09/08 03:56:43;;;;;;;6.85;5.63;;;23.30;99.90;;;;;;5048476;29;20060;-76
2023/09/08 03:59:13;;;;;;;9.00;5.55;;;23.40;99.90;;;;;;5047769;29;20029;-80
2023/09/08 04:01:44;;;;;;;9.93;5.55;;;23.40;99.90;;;;;;5048908;29;20029;-80
2023/09/08 04:04:15;;;;;;;9.10;5.93;;;23.40;99.90;;;;;;5049352;29;20104;-80
2023/09/08 04:06:46;;;;;;;11.73;6.40;;;23.50;99.90;;;;;;5047485;29;20538;-75
2023/09/08 04:09:16;;;;;;;11.60;6.35;;;23.40;99.90;;;;;;5048907;29;20397;-79
2023/09/08 04:11:48;;;;;;;11.38;5.70;;;23.40;99.90;;;;;;5048864;29;20466;-79
2023/09/08 04:14:19;;;;;;;8.27;6.20;;;23.50;99.90;;;;;;5048531;29;20107;-81
2023/09/08 04:16:50;;;;;;;14.13;6.90;;;23.40;99.90;;;;;;5048815;29;20025;-80
2023/09/08 04:19:21;;;;;;;8.98;6.18;;;23.40;99.90;;;;;;5062955;29;20025;-76
2023/09/08 04:21:52;;;;;;;6.22;5.30;;;23.40;99.90;;;;;;5048393;29;20068;-78
2023/09/08 04:24:22;;;;;;;9.65;5.72;;;23.30;99.90;;;;;;5047365;29;20027;-77
2023/09/08 04:26:53;;;;;;;12.30;5.95;;;23.40;99.90;;;;;;5048565;29;20032;-76
2023/09/08 04:29:24;;;;;;;9.57;5.30;;;23.50;99.90;;;;;;5048378;29;20454;-78
2023/09/08 04:31:55;;;;;;;9.50;5.63;;;23.50;99.90;;;;;;5048437;29;20037;-80
2023/09/08 04:34:25;;;;;;;13.93;7.05;;;23.50;99.90;;;;;;5047363;29;20543;-79
2023/09/08 04:36:56;;;;;;;11.00;6.25;;;23.50;99.90;;;;;;5048485;29;20381;-81
2023/09/08 04:39:27;;;;;;;10.10;5.88;;;23.50;99.90;;;;;;5048358;29;20085;-80
2023/09/08 04:41:58;;;;;;;12.23;6.32;;;23.60;99.90;;;;;;5047160;29;20025;-78
2023/09/08 04:44:28;;;;;;;8.88;6.90;;;23.60;99.90;;;;;;5048506;29;20063;-79
2023/09/08 04:46:59;;;;;;;8.77;6.63;;;23.60;99.90;;;;;;5048375;29;20494;-79
2023/09/08 04:49:30;;;;;;;11.75;6.80;;;23.50;99.90;;;;;;5046952;29;20127;-80
2023/09/08 04:52:01;;;;;;;8.68;7.28;;;23.60;99.90;;;;;;5047785;29;20026;-80
2023/09/08 04:54:32;;;;;;;12.63;7.00;;;23.70;99.90;;;;;;5047989;29;20048;-79
2023/09/08 04:57:03;;;;;;;14.65;6.88;;;23.70;99.90;;;;;;5047877;29;20502;-79
2023/09/08 04:59:36;;;;;;;9.00;5.82;;;23.70;99.90;;;;;;5048077;29;20383;-78
2023/09/08 05:02:07;;;;;;;10.13;5.85;;;23.80;99.90;;;;;;5047516;29;20025;-76
2023/09/08 05:04:38;;;;;;;11.18;5.88;;;23.80;99.90;;;;;;5048043;29;20089;-79
2023/09/08 05:07:10;;;;;;;13.18;6.07;;;23.80;99.90;;;;;;5047949;29;20470;-76
2023/09/08 05:09:40;;;;;;;9.43;5.68;;;23.90;99.90;;;;;;5047993;29;20060;-76
2023/09/08 05:12:13;;;;;;;9.63;6.03;;;23.90;99.90;;;;;;5043940;29;20018;-76
2023/09/08 05:14:44;;;;;;;10.65;5.63;;;23.90;99.90;;;;;;5027361;29;20075;-76
2023/09/08 05:17:15;;;;;;;8.82;6.00;;;23.90;99.90;;;;;;5028929;29;20049;-76
2023/09/08 05:19:46;;;;;;;11.18;7.03;;;24.00;99.90;;;;;;5027503;29;20078;-78
2023/09/08 05:22:17;;;;;;;14.68;6.80;;;24.00;99.90;;;;;;5033346;29;20100;-77
2023/09/08 05:24:49;;;;;;;10.52;6.15;;;24.00;99.90;;;;;;5047532;29;20060;-77
2023/09/08 05:27:20;;;;;;;10.43;6.30;;;24.00;99.90;;;;;;5046378;29;20029;-79
2023/09/08 05:29:51;;;;;;;11.00;6.13;;;24.00;99.90;;;;;;5061636;29;20056;-76
2023/09/08 05:32:22;;;;;;;12.07;6.72;;;24.00;99.90;;;;;;5047541;29;20446;-76
2023/09/08 05:34:52;;;;;;;9.35;6.43;;;24.00;99.90;;;;;;5045848;29;20080;-76
2023/09/08 05:37:23;;;;;;;12.48;6.25;;;24.00;99.90;;;;;;5047383;29;20033;-79
2023/09/08 05:39:54;;;;;;;9.65;6.13;;;24.10;99.90;;;;;;5047203;29;20037;-77
2023/09/08 05:42:25;;;;;;;9.63;6.68;;;24.10;99.90;;;;;;5047507;29;20363;-79
2023/09/08 05:44:55;;;;;;;11.90;6.53;;;24.20;99.90;;;;;;5047232;29;20040;-79
2023/09/08 05:47:26;;;;;;;10.35;6.93;;;24.20;99.90;;;;;;5043586;29;20030;-78
2023/09/08 05:49:57;;;;;;;11.90;6.13;;;24.20;99.90;;;;;;5038583;29;20093;-79
2023/09/08 05:52:28;;;;;;;10.88;6.28;;;24.30;99.90;;;;;;5041286;29;20025;-79
2023/09/08 05:55:00;;;;;;;10.45;6.93;;;24.30;99.90;;;;;;5047326;29;20732;-80
2023/09/08 05:57:31;;;;;;;12.80;6.95;;;24.30;99.90;;;;;;5061281;29;20088;-81
2023/09/08 06:00:03;;;;;;;13.07;6.90;;;24.30;99.90;;;;;;5047584;29;20486;-79
2023/09/08 06:02:34;;;;;;;13.05;7.35;;;24.40;99.90;;;;;;5047325;29;20017;-76
2023/09/08 06:05:05;;;;;;;9.55;6.93;;;24.40;99.90;;;;;;5034892;29;20048;-80
2023/09/08 06:07:36;;;;;;;8.45;6.53;;;24.30;99.90;;;;;;5061175;29;20033;-80
2023/09/08 06:10:07;;;;;;;10.07;7.25;;;24.50;99.90;;;;;;5042953;29;20538;-79
2023/09/08 06:12:38;;;;;;;11.90;7.03;;;24.40;99.90;;;;;;5060965;29;20025;-77
2023/09/08 06:15:09;;;;;;;8.93;6.43;;;24.40;99.90;;;;;;5043528;29;20033;-77
2023/09/08 06:17:40;;;;;;;8.38;6.43;;;24.50;99.90;;;;;;5047438;29;20032;-77
2023/09/08 06:20:11;;;;;;;10.48;6.97;;;24.50;99.90;;;;;;5041371;29;20021;-76
2023/09/08 06:22:42;;;;;;;10.48;6.85;;;24.50;99.90;;;;;;5035939;29;20052;-76
2023/09/08 06:25:13;;;;;;;9.10;6.80;;;24.50;99.90;;;;;;5042040;29;20478;-78
2023/09/08 06:27:44;;;;;;;11.18;7.32;;;24.50;99.90;;;;;;5044517;29;20072;-78
2023/09/08 06:30:16;;;;;;;9.52;6.43;;;24.60;99.90;;;;;;5046933;29;20041;-76
2023/09/08 06:32:47;;;;;;;14.95;7.05;;;24.60;99.90;;;;;;5045286;29;20029;-76
2023/09/08 06:35:17;;;;;;;10.82;7.55;;;24.70;99.90;;;;;;5044070;29;20029;-80
2023/09/08 06:37:48;;;;;;;11.80;7.13;;;24.90;99.90;;;;;;5050269;29;20033;-77
2023/09/08 06:40:19;;;;;;;13.43;7.80;;;25.00;99.90;;;;;;5049255;29;20034;-78
2023/09/08 06:42:50;;;;;;;10.05;7.18;;;25.10;99.90;;;;;;5043016;29;20029;-78
2023/09/08 06:45:21;;;;;;;9.95;7.18;;;25.30;99.90;;;;;;5050237;29;20508;-76
2023/09/08 06:47:54;;;;;;;8.60;7.30;;;25.30;99.90;;;;;;5048452;29;20389;-77
2023/09/08 06:50:26;;;;;;;11.43;8.60;;;25.50;99.90;;;;;;5042293;29;20043;-77
2023/09/08 06:52:56;;;;;;;9.43;8.52;;;25.50;99.90;;;;;;5039840;29;20029;-78
2023/09/08 06:55:27;;;;;;;10.40;9.38;;;25.60;99.90;;;;;;5049457;29;20041;-78
2023/09/08 06:57:59;;;;;;;13.00;8.25;;;25.60;99.90;;;;;;5038569;29;20056;-79
2023/09/08 07:00:30;;;;;;;9.63;7.60;;;25.60;99.90;;;;;;5044989;29;20033;-80
2023/09/08 07:03:02;;;;;;;8.23;6.72;;;25.70;99.90;;;;;;5054393;29;20439;-79
2023/09/08 07:05:34;;;;;;;8.98;7.45;;;25.70;99.90;;;;;;5041162;29;20378;-78
2023/09/08 07:08:06;;;;;;;6.95;6.35;;;25.90;99.90;;;;;;5042369;29;20029;-81
2023/09/08 07:10:38;;;;;;;9.10;5.60;;;26.00;99.90;;;;;;5038434;29;20056;-77
2023/09/08 07:13:11;;;;;;;10.35;7.15;;;26.10;99.90;;;;;;5025588;29;20074;-78
2023/09/08 07:15:42;;;;;;;10.13;6.68;;;26.00;99.90;;;;;;5033172;29;20049;-77
2023/09/08 07:18:13;;;;;;;9.35;6.20;;;26.00;99.90;;;;;;5042763;29;20085;-80
2023/09/08 07:20:49;;;;;;;6.65;5.80;;;26.00;99.90;;;;;;5029828;29;20048;-81
2023/09/08 07:23:20;;;;;;;9.68;6.47;;;26.00;99.90;;;;;;5036479;29;20074;-81
2023/09/08 07:25:51;;;;;;;7.75;6.22;;;26.10;99.90;;;;;;5045587;29;20041;-78
2023/09/08 07:28:22;;;;;;;11.60;5.63;;;26.10;99.90;;;;;;5032631;29;20502;-81
2023/09/08 07:30:53;;;;;;;7.68;5.75;;;26.00;99.90;;;;;;5024277;29;20063;-82
2023/09/08 07:33:24;;;;;;;8.02;5.65;;;26.00;99.90;;;;;;5040323;29;20133;-76
2023/09/08 07:35:56;;;;;;;9.18;6.03;;;25.90;99.90;;;;;;5036881;29;20034;-78
2023/09/08 07:38:28;;;;;;;6.63;5.82;;;26.00;99.90;;;;;;5037339;29;20045;-75
2023/09/08 07:41:02;;;;;;;11.35;6.13;;;26.00;99.90;;;;;;5035565;29;20525;-78
2023/09/08 07:43:33;;;;;;;7.80;6.22;;;26.00;99.90;;;;;;5036948;29;20048;-77
2023/09/08 07:46:04;;;;;;;10.68;6.20;;;26.00;99.90;;;;;;5037160;29;20018;-75
2023/09/08 07:48:35;;;;;;;9.63;6.72;;;26.10;99.90;;;;;;5037348;29;20055;-77
2023/09/08 07:51:06;;;;;;;10.02;6.15;;;26.00;99.90;;;;;;5032091;29;20169;-80
2023/09/08 07:53:37;;;;;;;7.93;6.68;;;26.00;99.90;;;;;;5038590;29;20116;-79
2023/09/08 07:56:08;;;;;;;7.75;6.93;;;26.10;99.90;;;;;;5041491;29;20116;-83
2023/09/08 07:58:39;;;;;;;12.57;6.82;;;26.10;99.90;;;;;;5044942;29;20049;-78
2023/09/08 08:01:12;;;;;;;10.10;6.75;;;26.10;99.90;;;;;;5041204;29;20040;-79
2023/09/08 08:03:43;;;;;;;7.03;5.85;;;26.10;99.90;;;;;;5043303;29;20482;-78
2023/09/08 08:06:14;;;;;;;10.73;6.32;;;26.10;99.90;;;;;;5035248;29;20025;-83
2023/09/08 08:08:45;;;;;;;7.40;5.75;;;26.00;99.90;;;;;;5042221;29;20025;-78
2023/09/08 08:11:20;;;;;;;10.32;6.00;;;25.90;99.90;;;;;;5039309;29;20040;-80
2023/09/08 08:13:51;;;;;;;10.23;6.75;;;25.90;99.90;;;;;;5039551;29;20372;-82
2023/09/08 08:16:22;;;;;;;12.10;6.43;;;25.90;99.90;;;;;;5035141;29;20037;-77
2023/09/08 08:18:57;;;;;;;8.02;6.32;;;26.00;99.90;;;;;;5038083;29;20017;-88
2023/09/08 08:21:27;;;;;;;7.90;6.05;;;26.00;99.90;;;;;;5036126;29;20394;-80
2023/09/08 08:23:58;;;;;;;8.82;6.10;;;26.00;99.90;;;;;;5044180;29;20039;-83
2023/09/08 08:26:32;;;;;;;9.80;6.10;;;26.00;99.90;;;;;;5042254;29;20045;-80
2023/09/08 08:29:03;;;;;;;9.32;6.43;;;26.00;99.90;;;;;;5042369;29;20045;-84
2023/09/08 08:31:34;;;;;;;6.93;6.07;;;26.10;99.90;;;;;;5043826;29;20390;-75
2023/09/08 08:34:05;;;;;;;8.02;6.75;;;26.20;99.90;;;;;;5043236;29;20041;-77
2023/09/08 08:36:35;;;;;;;7.05;6.45;;;26.40;99.90;;;;;;5038742;29;20022;-77
2023/09/08 08:39:06;;;;;;;6.95;6.25;;;26.30;99.90;;;;;;5046367;29;20029;-78
2023/09/08 08:41:39;;;;;;;8.77;6.95;;;26.40;99.90;;;;;;5044956;29;20040;-78
2023/09/08 08:44:10;;;;;;;6.97;6.22;;;26.30;99.90;;;;;;5031092;29;20596;-79
2023/09/08 08:46:43;;;;;;;8.98;6.22;;;26.30;99.90;;;;;;5040653;29;20042;-80
2023/09/08 08:49:16;;;;;;;7.65;6.90;;;26.40;99.90;;;;;;5040485;29;20037;-80
2023/09/08 08:51:48;;;;;;;6.80;6.20;;;26.30;99.90;;;;;;5043331;29;20063;-82
2023/09/08 08:54:20;;;;;;;9.18;6.40;;;26.50;99.90;;;;;;5045162;29;20048;-77
2023/09/08 08:56:51;;;;;;;9.52;5.85;;;26.50;99.90;;;;;;5041258;29;20405;-77
2023/09/08 08:59:22;;;;;;;8.70;5.63;;;26.60;99.90;;;;;;5045728;29;20488;-78
2023/09/08 09:01:54;;;;;;;7.63;5.38;;;26.80;99.90;;;;;;5041833;29;20172;-78
2023/09/08 09:04:26;;;;;;;13.50;5.53;;;26.60;99.90;;;;;;5045256;29;20041;-79
2023/09/08 09:06:57;;;;;;;8.85;5.50;;;26.50;99.90;;;;;;5037850;29;21960;-80
2023/09/08 09:09:28;;;;;;;6.90;5.50;;;26.50;99.90;;;;;;5036259;29;20499;-79
2023/09/08 09:12:02;;;;;;;9.13;6.15;;;26.60;99.90;;;;;;5044182;29;20153;-78
2023/09/08 09:14:34;;;;;;;6.85;6.00;;;26.70;99.90;;;;;;5038135;29;20108;-78
2023/09/08 09:17:11;;;;;;;8.02;6.13;;;26.90;99.90;;;;;;5039360;29;20029;-78
2023/09/08 09:19:42;;;;;;;6.68;5.45;;;27.00;99.90;;;;;;5038402;29;20057;-77
2023/09/08 09:22:13;;;;;;;6.78;4.80;;;26.90;99.90;;;;;;5033156;29;20033;-78
2023/09/08 09:24:44;;;;;;;9.32;5.88;;;26.90;99.90;;;;;;5039415;29;20029;-78
2023/09/08 09:27:15;;;;;;;6.60;5.93;;;27.10;99.90;;;;;;5039486;29;20037;-78
2023/09/08 09:29:49;;;;;;;7.80;5.15;;;27.30;99.90;;;;;;5046764;29;20040;-78
2023/09/08 09:32:24;;;;;;;6.40;5.03;;;27.30;99.90;;;;;;5038259;29;20104;-78
2023/09/08 09:35:00;;;;;;;6.22;5.47;;;27.20;99.90;;;;;;5042817;29;20502;-78
2023/09/08 09:37:32;;;;;;;6.68;4.90;;;27.00;99.90;;;;;;5036559;29;20068;-77
2023/09/08 09:40:07;;;;;;;7.00;5.82;;;26.80;99.90;;;;;;5038532;29;20490;-78
2023/09/08 09:42:40;;;;;;;8.52;5.18;;;27.00;99.90;;;;;;5043805;29;20029;-78
2023/09/08 09:45:11;;;;;;;10.05;7.05;;;27.10;99.90;;;;;;5042412;29;20169;-78
2023/09/08 09:47:44;;;;;;;8.07;6.55;;;27.30;99.90;;;;;;5041191;29;20112;-77
2023/09/08 09:50:35;;;;;;;9.20;8.30;;;27.40;99.90;;;;;;5041773;29;20124;-76
2023/09/08 09:53:18;;;;;;;9.68;8.77;;;27.20;99.90;;;;;;5045107;29;20049;-80
2023/09/08 09:55:53;;;;;;;9.95;7.97;;;26.90;99.90;;;;;;5041381;29;20072;-78
2023/09/08 09:58:30;;;;;;;8.77;7.50;;;26.90;99.90;;;;;;5050349;29;20068;-77
2023/09/08 10:01:04;;;;;;;6.80;5.60;;;26.80;99.90;;;;;;5047024;29;20035;-80
2023/09/08 10:03:41;;;;;;;7.88;7.15;;;27.20;99.90;;;;;;5060241;29;20036;-79
2023/09/08 10:06:15;;;;;;;11.75;9.10;;;27.30;99.90;;;;;;5043086;29;20026;-82
2023/09/08 10:08:51;;;;;;;10.13;9.35;;;27.10;99.90;;;;;;5040232;29;20040;-82
2023/09/08 10:11:28;;;;;;;11.63;10.32;;;27.40;99.90;;;;;;5043701;29;20068;-80
2023/09/08 10:14:00;;;;;;;11.25;9.63;;;27.50;99.90;;;;;;5048592;29;20087;-80
2023/09/08 10:16:36;;;;;;;10.07;9.02;;;27.50;99.90;;;;;;5048818;29;20048;-80
2023/09/08 10:19:11;;;;;;;11.65;9.38;;;27.40;99.90;;;;;;5044050;29;20081;-81
2023/09/08 10:21:46;;;;;;;10.45;9.20;;;27.60;99.90;;;;;;5042512;29;20111;-81
2023/09/08 10:24:26;;;;;;;10.93;9.90;;;27.40;99.90;;;;;;5070873;29;20033;-79
2023/09/08 10:27:12;;;;;;;11.10;10.40;;;27.70;99.90;;;;;;5041662;29;20089;-88
2023/09/08 10:29:43;;;;;;;10.10;9.07;;;27.90;99.90;;;;;;5045903;29;20501;-80
2023/09/08 10:32:16;;;;;;;10.57;9.50;;;27.70;99.90;;;;;;5045629;29;20044;-84
2023/09/08 10:34:48;;;;;;;10.82;7.60;;;27.80;99.90;;;;;;5041723;29;20386;-82
2023/09/08 10:37:32;;;;;;;10.27;9.18;;;27.90;99.90;;;;;;5043860;29;20053;-80
2023/09/08 10:40:22;;;;;;;10.27;8.43;;;28.00;99.90;;;;;;5043288;29;20056;-77
2023/09/08 10:43:09;;;;;;;8.80;7.90;;;27.40;99.90;;;;;;5041400;29;20501;-79
2023/09/08 10:45:44;;;;;;;12.10;9.52;;;27.60;99.90;;;;;;5045127;29;20092;-82
2023/09/08 10:48:15;;;;;;;11.20;10.07;;;27.60;99.90;;;;;;5043063;29;20035;-80
2023/09/08 10:50:46;;;;;;;9.23;8.23;;;27.80;99.90;;;;;;5048920;29;20439;-79
2023/09/08 10:53:18;;;;;;;9.65;8.43;;;27.80;99.90;;;;;;5049322;29;20037;-81
2023/09/08 10:55:53;;;;;;;9.77;7.50;;;27.90;99.90;;;;;;5040444;29;20033;-78
2023/09/08 10:58:39;;;;;;;8.48;7.63;;;28.30;99.90;;;;;;5042811;29;20045;-78
2023/09/08 11:01:17;;;;;;;7.72;7.00;;;28.20;99.90;;;;;;5041084;29;20036;-80
2023/09/08 11:03:50;;;;;;;8.98;8.13;;;28.10;99.90;;;;;;5042545;29;20423;-81
2023/09/08 11:06:30;;;;;;;10.27;9.27;;;28.40;99.90;;;;;;5043259;29;20532;-85
2023/09/08 11:09:07;;;;;;;;;;;28.00;99.90;;;;;;5043037;29;20029;-80
2023/09/08 11:11:39;;;;;;;8.52;7.88;;;27.70;99.90;;;;;;5048317;29;19958;-78
2023/09/08 11:14:09;;;;;;;8.85;7.97;;;27.90;99.90;;;;;;5041333;29;20045;-78
2023/09/08 11:16:40;;;;;;;9.27;8.48;;;27.80;99.90;;;;;;5039983;29;20113;-80
2023/09/08 11:19:12;;;;;;;8.60;7.90;;;27.50;99.90;;;;;;5044918;29;20044;-78
2023/09/08 11:21:44;;;;;;;9.18;8.35;;;27.60;99.90;;;;;;5044950;29;20029;-80
2023/09/08 11:24:15;;;;;;;9.73;8.77;;;27.20;99.90;;;;;;5041667;29;20068;-78
2023/09/08 11:26:46;;;;;;;9.57;8.55;;;27.30;99.90;;;;;;5039365;29;20052;-80
2023/09/08 11:29:17;;;;;;;10.35;9.35;;;27.60;99.90;;;;;;5047576;29;20037;-79
2023/09/08 11:31:53;;;;;;;11.10;10.10;;;27.60;99.90;;;;;;5059263;29;20029;-81
2023/09/08 11:34:24;;;;;;;10.55;9.52;;;27.50;99.90;;;;;;5042431;29;20390;-79
2023/09/08 11:36:57;;;;;;;14.68;9.75;;;27.50;99.90;;;;;;5041791;29;20037;-81
2023/09/08 11:39:28;;;;;;;10.88;9.93;;;27.20;99.90;;;;;;5044711;29;20029;-80
2023/09/08 11:42:01;;;;;;;10.75;9.95;;;27.40;99.90;;;;;;5045957;29;20782;-80
2023/09/08 11:44:34;;;;;;;11.15;10.18;;;27.50;99.90;;;;;;5042107;29;20102;-83
2023/09/08 11:47:09;;;;;;;11.85;10.95;;;27.20;99.90;;;;;;5043345;29;20057;-79
2023/09/08 11:49:41;;;;;;;10.93;9.88;;;27.20;99.90;;;;;;5046396;29;20028;-79
2023/09/08 11:52:12;;;;;;;10.57;9.50;;;27.40;99.90;;;;;;5037832;29;21175;-78
2023/09/08 11:54:44;;;;;;;11.13;9.98;;;27.30;99.90;;;;;;5039874;29;20113;-78
2023/09/08 11:57:15;;;;;;;13.27;11.98;;;27.20;99.90;;;;;;5042837;29;20053;-78
2023/09/08 11:59:49;;;;;;;11.55;10.18;;;27.10;99.90;;;;;;5044333;29;20037;-84
2023/09/08 12:02:20;;;;;;;12.15;10.75;;;27.00;99.90;;;;;;5001334;29;20038;-79
2023/09/08 12:04:54;;;;;;;12.43;11.25;;;27.30;99.90;;;;;;4993387;29;20046;-80
2023/09/08 12:07:26;;;;;;;11.32;10.23;;;27.60;99.90;;;;;;4994203;29;20044;-82
2023/09/08 12:09:58;;;;;;;11.23;10.20;;;27.60;99.90;;;;;;4996886;29;20032;-80
2023/09/08 12:12:29;;;;;;;13.20;10.38;;;27.60;99.90;;;;;;5000608;29;20053;-78
2023/09/08 12:15:00;;;;;;;10.30;9.30;;;27.60;99.90;;;;;;5000732;29;20038;-80
2023/09/08 12:17:31;;;;;;;11.32;10.38;;;27.30;99.90;;;;;;4993089;29;20096;-78
2023/09/08 12:20:13;;;;;;;12.15;11.15;;;27.00;99.90;;;;;;4994847;29;20560;-78
2023/09/08 12:22:51;;;;;;;11.85;10.95;;;27.00;99.90;;;;;;5001193;29;20074;-81
2023/09/08 12:25:21;;;;;;;13.25;11.98;;;27.20;99.90;;;;;;4986788;29;20113;-81
2023/09/08 12:27:52;;;;;;;12.27;11.15;;;27.60;99.90;;;;;;4993119;29;20113;-81
2023/09/08 12:30:32;;;;;;;11.38;10.38;;;27.80;99.90;;;;;;4997277;29;20038;-79
2023/09/08 12:33:03;;;;;;;;;;;27.70;99.90;;;;;;5006697;29;20540;-83
2023/09/08 12:35:35;;;;;;;12.38;11.15;;;27.60;99.90;;;;;;5045774;29;19911;-85
2023/09/08 12:38:06;;;;;;;12.50;10.90;;;27.60;99.90;;;;;;5043364;29;20708;-85
2023/09/08 12:40:38;;;;;;;11.68;9.98;;;27.40;99.90;;;;;;5039458;29;20029;-83
2023/09/08 12:43:09;;;;;;;13.38;9.48;;;27.50;99.90;;;;;;5037222;29;20029;-82
2023/09/08 12:45:39;;;;;;;11.70;10.48;;;27.30;99.90;;;;;;5053801;29;20077;-81
2023/09/08 13:00:58;;;;;;;8.98;8.18;;;27.40;99.90;;;;;;5281668;27;20400;-85
2023/09/08 13:03:29;;;;;;;10.40;9.13;;;27.80;99.90;;;;;;5281231;28;20827;-79
2023/09/08 13:06:00;;;;;;;10.40;9.38;;;27.70;99.90;;;;;;5277463;28;20455;-86
2023/09/08 13:08:31;;;;;;;13.75;8.52;;;27.60;99.90;;;;;;5279083;28;20032;-85
2023/09/08 13:11:03;;;;;;;10.55;9.60;;;27.50;99.90;;;;;;5283041;28;20020;-84
2023/09/08 13:13:33;;;;;;;10.80;9.05;;;27.50;99.90;;;;;;5279759;28;20040;-83
2023/09/08 13:16:04;;;;;;;9.68;8.40;;;27.90;99.90;;;;;;5279187;28;20032;-79
2023/09/08 13:18:38;;;;;;;9.43;8.20;;;27.70;99.90;;;;;;5264596;28;20487;-86